Time;durP1;ratioP1;P1;durP2;ratioP2;P2;SDS_P1;SDS_P2;PMS_P1;PMS_P2;Temp;Humidity;BMP_temperature;BMP_pressure;BME280_temperature;BME280_humidity;BME280_pressure;Samples;Min_cycle;Max_cycle;Signal;HPM_P1;HPM_P2
2021/12/04 00:02:03;;;;;;;32.35;16.80;;;4.40;99.90;;;;;;4898199;29;20079;-68
2021/12/04 00:04:33;;;;;;;32.30;18.90;;;4.30;99.90;;;;;;4882513;29;20458;-67
2021/12/04 00:06:58;;;;;;;33.92;18.23;;;4.40;99.90;;;;;;4883938;29;20402;-69
2021/12/04 00:09:24;;;;;;;32.83;18.55;;;4.40;99.90;;;;;;4899801;29;20049;-67
2021/12/04 00:12:03;;;;;;;30.98;18.23;;;4.40;99.90;;;;;;4883812;29;20056;-67
2021/12/04 00:14:34;;;;;;;31.77;18.92;;;4.40;99.90;;;;;;4882790;29;20480;-68
2021/12/04 00:17:00;;;;;;;33.25;17.92;;;4.40;99.90;;;;;;4882825;29;20056;-69
2021/12/04 00:19:27;;;;;;;32.83;18.13;;;4.40;99.90;;;;;;4896567;29;20080;-68
2021/12/04 00:21:53;;;;;;;33.05;17.92;;;4.40;99.90;;;;;;4882697;29;20148;-69
2021/12/04 00:24:19;;;;;;;32.47;18.48;;;4.40;99.90;;;;;;4882588;29;20056;-67
2021/12/04 00:26:46;;;;;;;34.20;17.90;;;4.40;99.90;;;;;;4883034;29;20056;-68
2021/12/04 00:29:12;;;;;;;32.08;17.52;;;4.40;99.90;;;;;;4883050;29;20390;-67
2021/12/04 00:31:41;;;;;;;33.00;18.38;;;4.40;99.90;;;;;;4882799;29;20080;-67
2021/12/04 00:34:06;;;;;;;31.42;17.05;;;4.40;99.90;;;;;;4882491;29;20402;-67
2021/12/04 00:49:54;;;;;;;33.17;17.40;;;4.40;99.90;;;;;;4882058;29;20049;-68
2021/12/04 00:52:20;;;;;;;36.22;18.77;;;4.80;99.90;;;;;;4899278;29;20418;-67
2021/12/04 00:54:46;;;;;;;33.90;18.92;;;4.40;99.90;;;;;;4865950;29;20474;-66
2021/12/04 00:57:12;;;;;;;36.10;17.77;;;4.40;99.90;;;;;;4867835;29;20389;-67
2021/12/04 00:59:38;;;;;;;38.72;18.60;;;4.40;99.90;;;;;;4882541;29;20067;-67
2021/12/04 01:02:05;;;;;;;34.80;17.45;;;4.40;99.90;;;;;;4897505;29;20493;-68
2021/12/04 01:04:31;;;;;;;35.83;18.05;;;4.40;99.90;;;;;;4881578;29;20104;-69
2021/12/04 01:06:56;;;;;;;37.20;17.98;;;4.40;99.90;;;;;;4899827;29;20382;-67
2021/12/04 01:09:24;;;;;;;33.65;16.98;;;4.40;99.90;;;;;;4882458;29;20113;-68
2021/12/04 01:11:51;;;;;;;28.77;16.42;;;4.40;99.90;;;;;;4881604;29;20497;-66
2021/12/04 01:14:19;;;;;;;33.53;17.52;;;4.40;99.90;;;;;;4882866;29;20064;-67
2021/12/04 01:16:45;;;;;;;31.85;16.08;;;4.50;99.90;;;;;;4881890;29;20063;-68
2021/12/04 01:19:14;;;;;;;31.15;17.27;;;4.50;99.90;;;;;;4896857;29;20053;-66
2021/12/04 01:21:40;;;;;;;29.88;16.38;;;4.40;99.90;;;;;;4898549;29;20068;-68
2021/12/04 01:24:06;;;;;;;30.23;16.30;;;4.40;99.90;;;;;;4897317;29;20135;-68
2021/12/04 01:26:32;;;;;;;28.30;16.10;;;4.40;99.90;;;;;;4882550;29;20104;-67
2021/12/04 01:28:57;;;;;;;27.10;14.73;;;4.40;99.90;;;;;;4897548;29;20506;-69
2021/12/04 01:31:23;;;;;;;27.90;15.35;;;4.40;99.90;;;;;;4881586;29;20061;-67
2021/12/04 01:33:49;;;;;;;25.17;15.40;;;4.40;99.90;;;;;;4881134;29;20490;-69
2021/12/04 01:36:15;;;;;;;23.95;14.45;;;4.40;99.90;;;;;;4881557;29;20056;-69
2021/12/04 01:38:41;;;;;;;24.52;14.32;;;4.40;99.90;;;;;;4881860;29;20516;-66
2021/12/04 01:41:06;;;;;;;21.70;13.52;;;4.40;99.90;;;;;;4881884;29;20401;-67
2021/12/04 01:43:32;;;;;;;24.30;14.00;;;4.40;99.90;;;;;;4881276;29;20101;-67
2021/12/04 01:45:59;;;;;;;23.48;13.80;;;4.40;99.90;;;;;;4881743;29;20115;-68
2021/12/04 01:48:25;;;;;;;19.88;13.73;;;4.40;99.90;;;;;;4898242;29;20064;-68
2021/12/04 01:50:52;;;;;;;20.83;13.75;;;4.40;99.90;;;;;;4880490;29;20212;-68
2021/12/04 01:53:19;;;;;;;20.58;13.30;;;4.40;99.90;;;;;;4898224;29;20569;-68
2021/12/04 01:55:45;;;;;;;18.55;12.88;;;4.50;99.90;;;;;;4880975;29;20052;-67
2021/12/04 01:58:11;;;;;;;19.92;13.48;;;4.40;99.90;;;;;;4881174;29;20173;-67
2021/12/04 02:00:39;;;;;;;19.02;13.68;;;4.40;99.90;;;;;;4897389;29;20063;-67
2021/12/04 02:03:08;;;;;;;19.75;13.32;;;4.40;99.90;;;;;;4879253;29;20057;-68
2021/12/04 02:05:38;;;;;;;19.40;13.88;;;4.40;99.90;;;;;;4880604;29;20123;-67
2021/12/04 02:08:05;;;;;;;20.00;14.80;;;4.40;99.90;;;;;;4880866;29;20052;-68
2021/12/04 02:10:31;;;;;;;19.35;13.20;;;4.40;99.90;;;;;;4881196;29;20067;-67
2021/12/04 02:12:57;;;;;;;19.02;14.23;;;4.40;99.90;;;;;;4881022;29;20052;-68
2021/12/04 02:15:22;;;;;;;19.38;13.45;;;4.40;99.90;;;;;;4880455;29;20059;-66
2021/12/04 02:17:49;;;;;;;22.98;14.35;;;4.40;99.90;;;;;;4880774;29;20049;-68
2021/12/04 02:20:21;;;;;;;19.90;13.40;;;4.50;99.90;;;;;;4880322;29;20048;-67
2021/12/04 02:22:47;;;;;;;;;;;4.50;99.90;;;;;;4881212;29;20056;-68
2021/12/04 02:25:14;;;;;;;17.30;12.27;;;4.40;99.90;;;;;;4880980;29;19923;-67
2021/12/04 02:27:40;;;;;;;20.55;14.68;;;4.40;99.90;;;;;;4880559;29;20045;-67
2021/12/04 02:30:12;;;;;;;18.05;12.05;;;4.40;99.90;;;;;;4895303;29;20398;-69
2021/12/04 02:32:38;;;;;;;19.60;13.23;;;4.40;99.90;;;;;;4880567;29;20048;-67
2021/12/04 02:35:05;;;;;;;20.15;13.50;;;4.40;99.90;;;;;;4896982;29;20116;-67
2021/12/04 02:37:33;;;;;;;17.25;12.43;;;4.40;99.90;;;;;;4897834;29;20057;-68
2021/12/04 02:39:59;;;;;;;17.70;12.35;;;4.40;99.90;;;;;;4896236;29;20056;-68
2021/12/04 02:42:29;;;;;;;16.45;12.40;;;4.40;99.90;;;;;;4881348;29;20844;-67
2021/12/04 02:44:55;;;;;;;16.42;11.93;;;4.40;99.90;;;;;;4897115;29;20088;-66
2021/12/04 02:47:21;;;;;;;16.65;12.18;;;4.40;99.90;;;;;;4896073;29;20087;-67
2021/12/04 02:49:47;;;;;;;15.23;12.18;;;4.40;99.90;;;;;;4896834;29;20048;-68
2021/12/04 02:52:14;;;;;;;15.30;11.20;;;4.40;99.90;;;;;;4880638;29;20135;-68
2021/12/04 02:54:40;;;;;;;13.70;10.85;;;4.40;99.90;;;;;;4880707;29;20082;-67
2021/12/04 02:57:08;;;;;;;15.23;11.52;;;4.40;99.90;;;;;;4880989;29;20042;-68
2021/12/04 02:59:37;;;;;;;14.50;11.00;;;4.40;99.90;;;;;;4880682;29;20108;-68
2021/12/04 03:02:15;;;;;;;13.90;10.50;;;4.40;99.90;;;;;;4880299;29;20064;-68
2021/12/04 03:04:40;;;;;;;14.35;10.98;;;4.40;99.90;;;;;;4896253;29;20151;-69
2021/12/04 03:07:06;;;;;;;15.18;10.85;;;4.40;99.90;;;;;;4880970;29;20549;-67
2021/12/04 03:09:31;;;;;;;13.48;10.85;;;4.40;99.90;;;;;;4897755;29;20501;-66
2021/12/04 03:12:00;;;;;;;12.93;10.57;;;4.30;99.90;;;;;;4881314;29;20053;-68
2021/12/04 03:14:25;;;;;;;12.10;9.77;;;4.30;99.90;;;;;;4896096;29;20052;-67
2021/12/04 03:16:51;;;;;;;13.40;10.50;;;4.40;99.90;;;;;;4895680;29;20075;-68
2021/12/04 03:19:18;;;;;;;12.30;9.32;;;4.40;99.90;;;;;;4879539;29;20112;-66
2021/12/04 03:21:43;;;;;;;12.95;10.13;;;4.30;99.90;;;;;;4897716;29;20064;-67
2021/12/04 03:24:12;;;;;;;14.85;10.18;;;4.30;99.90;;;;;;4896347;29;20063;-67
2021/12/04 03:26:38;;;;;;;13.57;9.93;;;4.30;99.90;;;;;;4883518;29;20445;-69
2021/12/04 03:29:08;;;;;;;13.50;9.88;;;4.40;99.90;;;;;;4899994;29;20531;-67
2021/12/04 03:40:09;;;;;;;11.85;9.18;;;4.30;99.90;;;;;;4883724;29;20057;-67
2021/12/04 03:42:36;;;;;;;14.07;9.98;;;4.30;99.90;;;;;;4883737;29;20044;-67
2021/12/04 03:45:05;;;;;;;14.00;9.88;;;4.30;99.90;;;;;;4883534;29;20063;-70
2021/12/04 03:47:30;;;;;;;13.90;8.93;;;4.30;99.90;;;;;;4881396;29;20132;-68
2021/12/04 03:49:57;;;;;;;12.77;9.43;;;4.30;99.90;;;;;;4880321;29;20057;-68
2021/12/04 03:52:25;;;;;;;14.02;9.07;;;4.30;99.90;;;;;;4891585;29;20059;-67
2021/12/04 03:54:50;;;;;;;12.93;9.25;;;4.30;99.90;;;;;;4899764;29;20067;-70
2021/12/04 03:57:16;;;;;;;12.85;9.68;;;4.30;99.90;;;;;;4899558;29;20053;-68
2021/12/04 03:59:45;;;;;;;12.93;9.27;;;4.30;99.90;;;;;;4898726;29;20394;-67
2021/12/04 04:02:13;;;;;;;12.38;9.00;;;4.30;99.90;;;;;;4883482;29;20396;-67
2021/12/04 04:04:39;;;;;;;12.43;9.38;;;4.30;99.90;;;;;;4883095;29;20493;-69
2021/12/04 04:07:06;;;;;;;13.35;9.23;;;4.30;99.90;;;;;;4900801;29;20053;-66
2021/12/04 04:09:32;;;;;;;12.55;8.80;;;4.30;99.90;;;;;;4883619;29;20548;-68
2021/12/04 04:11:58;;;;;;;11.73;8.77;;;4.30;99.90;;;;;;4884149;29;20075;-69
2021/12/04 04:14:24;;;;;;;14.32;9.13;;;4.30;99.90;;;;;;4883185;29;20055;-68
2021/12/04 04:16:53;;;;;;;12.30;8.98;;;4.30;99.90;;;;;;4879519;29;20056;-68
2021/12/04 04:19:18;;;;;;;13.93;8.70;;;4.30;99.90;;;;;;4892903;29;20139;-68
2021/12/04 04:21:44;;;;;;;14.32;9.73;;;4.30;99.90;;;;;;4883493;29;20127;-67
2021/12/04 04:24:15;;;;;;;13.65;8.93;;;4.30;99.90;;;;;;4883259;29;20061;-67
2021/12/04 04:26:41;;;;;;;12.63;8.95;;;4.30;99.90;;;;;;4883508;29;20061;-69
2021/12/04 04:29:08;;;;;;;12.25;8.43;;;4.30;99.90;;;;;;4883265;29;20060;-67
2021/12/04 04:31:35;;;;;;;10.95;8.20;;;4.30;99.90;;;;;;4897771;29;20357;-68
2021/12/04 04:34:07;;;;;;;12.98;8.93;;;4.30;99.90;;;;;;4900743;29;20433;-68
2021/12/04 05:01:43;;;;;;;13.88;10.05;;;4.40;99.90;;;;;;4880811;29;20061;-67
2021/12/04 05:12:25;;;;;;;10.85;8.35;;;4.30;99.90;;;;;;4899647;29;20086;-67
2021/12/04 05:14:57;;;;;;;14.38;8.82;;;4.40;99.90;;;;;;4898730;29;20549;-68
2021/12/04 05:18:08;;;;;;;11.80;8.35;;;4.40;99.90;;;;;;4899545;29;20458;-68
2021/12/04 05:20:24;;;;;;;11.20;8.20;;;4.40;99.90;;;;;;4879045;29;20060;-66
2021/12/04 05:22:50;;;;;;;11.00;8.45;;;4.40;99.90;;;;;;4898601;29;20062;-68
2021/12/04 05:25:15;;;;;;;11.25;8.18;;;4.80;99.90;;;;;;4882201;29;20056;-68
2021/12/04 05:27:42;;;;;;;11.48;8.68;;;4.40;99.90;;;;;;4881783;29;20057;-68
2021/12/04 05:30:08;;;;;;;12.40;9.18;;;4.40;99.90;;;;;;4881696;29;20065;-68
2021/12/04 05:32:34;;;;;;;10.75;8.05;;;4.40;99.90;;;;;;4897573;29;20056;-69
2021/12/04 05:34:59;;;;;;;9.95;7.47;;;4.40;99.90;;;;;;4896909;29;20052;-68
2021/12/04 05:37:25;;;;;;;11.25;7.57;;;4.40;99.90;;;;;;4882444;29;20064;-69
2021/12/04 05:39:50;;;;;;;10.00;7.55;;;4.40;99.90;;;;;;4881439;29;20057;-69
2021/12/04 05:42:16;;;;;;;11.82;8.65;;;4.40;99.90;;;;;;4881469;29;20056;-67
2021/12/04 05:44:43;;;;;;;11.77;9.05;;;4.40;99.90;;;;;;4878295;29;20509;-68
2021/12/04 05:47:25;;;;;;;12.63;8.30;;;4.40;99.90;;;;;;4878974;29;20045;-68
2021/12/04 05:50:09;;;;;;;11.02;8.00;;;4.40;99.90;;;;;;4891068;29;20082;-67
2021/12/04 05:52:50;;;;;;;10.55;7.88;;;4.40;99.90;;;;;;4880526;29;20060;-68
2021/12/04 05:55:20;;;;;;;11.32;8.50;;;4.40;99.90;;;;;;4898267;29;20071;-68
2021/12/04 05:57:46;;;;;;;13.38;8.70;;;4.40;99.90;;;;;;4898626;29;20052;-67
2021/12/04 06:00:16;;;;;;;9.88;8.20;;;4.40;99.90;;;;;;4880585;29;20104;-67
2021/12/04 06:02:42;;;;;;;11.48;8.70;;;4.40;99.90;;;;;;4881434;29;20425;-69
2021/12/04 06:05:08;;;;;;;10.93;7.93;;;4.40;99.90;;;;;;4896914;29;20056;-67
2021/12/04 06:07:33;;;;;;;10.18;7.95;;;4.40;99.90;;;;;;4897538;29;20514;-68
2021/12/04 06:09:59;;;;;;;9.05;7.22;;;4.40;99.90;;;;;;4897530;29;20076;-66
2021/12/04 06:12:25;;;;;;;11.18;8.15;;;4.40;99.90;;;;;;4881176;29;20127;-68
2021/12/04 06:14:50;;;;;;;10.98;8.18;;;4.40;99.90;;;;;;4896210;29;20078;-68
2021/12/04 06:17:20;;;;;;;11.73;8.60;;;4.40;99.90;;;;;;4897928;29;20155;-69
2021/12/04 06:22:37;;;;;;;11.27;8.35;;;4.40;99.90;;;;;;4877311;29;20144;-69
2021/12/04 06:25:07;;;;;;;10.63;7.80;;;4.40;99.90;;;;;;4862658;29;20057;-67
2021/12/04 06:27:34;;;;;;;13.13;9.20;;;4.30;99.90;;;;;;4894287;29;20096;-69
2021/12/04 06:29:59;;;;;;;14.50;10.00;;;4.40;99.90;;;;;;4881247;29;20180;-67
2021/12/04 06:32:25;;;;;;;11.43;8.30;;;4.40;99.90;;;;;;4880534;29;20475;-67
2021/12/04 06:34:52;;;;;;;11.40;7.93;;;4.40;99.90;;;;;;4880790;29;20052;-66
2021/12/04 06:37:18;;;;;;;13.48;8.32;;;4.40;99.90;;;;;;4881396;29;20048;-67
2021/12/04 06:39:44;;;;;;;14.32;9.70;;;4.30;99.90;;;;;;4878270;29;20060;-68
2021/12/04 06:42:10;;;;;;;14.38;9.20;;;4.30;99.90;;;;;;4897548;29;20060;-67
2021/12/04 06:44:36;;;;;;;13.15;8.38;;;4.40;99.90;;;;;;4879059;29;20432;-67
2021/12/04 06:47:02;;;;;;;12.18;8.50;;;4.30;99.90;;;;;;4896832;29;20090;-67
2021/12/04 06:49:31;;;;;;;13.70;8.65;;;4.40;99.90;;;;;;4880176;29;20492;-67
2021/12/04 06:51:59;;;;;;;11.95;9.05;;;4.40;99.90;;;;;;4897006;29;20405;-66
2021/12/04 06:54:29;;;;;;;15.52;9.27;;;4.40;99.90;;;;;;4880821;29;20088;-67
2021/12/04 06:56:54;;;;;;;14.68;9.77;;;4.40;99.90;;;;;;4874821;29;20060;-67
2021/12/04 06:59:27;;;;;;;15.43;9.80;;;4.40;99.90;;;;;;4874132;29;20052;-68
2021/12/04 07:01:53;;;;;;;15.57;9.32;;;4.40;99.90;;;;;;4891045;29;20079;-70
2021/12/04 07:04:19;;;;;;;13.40;8.98;;;4.40;99.90;;;;;;4905937;29;20430;-67
2021/12/04 07:06:47;;;;;;;16.40;9.75;;;4.40;99.90;;;;;;4884822;29;20354;-67
2021/12/04 07:09:13;;;;;;;14.02;8.65;;;4.30;99.90;;;;;;4883893;29;20136;-66
2021/12/04 07:11:38;;;;;;;15.57;10.57;;;4.30;99.90;;;;;;4884745;29;20402;-67
2021/12/04 07:14:04;;;;;;;11.88;8.68;;;4.40;99.90;;;;;;4899974;29;20119;-68
2021/12/04 07:16:31;;;;;;;18.10;10.23;;;4.30;99.90;;;;;;4884564;29;20057;-69
2021/12/04 07:18:57;;;;;;;14.70;8.93;;;4.30;99.90;;;;;;4900442;29;20053;-67
2021/12/04 07:21:23;;;;;;;14.35;9.48;;;4.40;99.90;;;;;;4884054;29;21899;-66
2021/12/04 07:23:49;;;;;;;11.43;8.68;;;4.40;99.90;;;;;;4901152;29;20063;-68
2021/12/04 07:26:15;;;;;;;14.05;8.88;;;4.30;99.90;;;;;;4884159;29;20057;-67
2021/12/04 07:28:40;;;;;;;12.90;8.20;;;4.40;99.90;;;;;;4883879;29;20054;-66
2021/12/04 07:31:06;;;;;;;14.15;8.88;;;4.30;99.90;;;;;;4899553;29;20071;-68
2021/12/04 07:33:32;;;;;;;12.68;8.82;;;4.30;99.90;;;;;;4884191;29;20107;-67
2021/12/04 07:35:57;;;;;;;12.07;8.00;;;4.40;99.90;;;;;;4899372;29;20127;-69
2021/12/04 07:38:24;;;;;;;10.57;7.57;;;4.30;99.90;;;;;;4883963;29;20088;-67
2021/12/04 07:40:49;;;;;;;14.40;8.35;;;4.30;99.90;;;;;;4884127;29;20481;-68
2021/12/04 07:43:15;;;;;;;12.73;9.00;;;4.30;99.90;;;;;;4883594;29;20057;-67
2021/12/04 07:45:41;;;;;;;12.73;8.63;;;4.40;99.90;;;;;;4887270;29;20405;-68
2021/12/04 07:48:06;;;;;;;13.43;8.88;;;4.30;99.90;;;;;;4900383;29;20049;-66
2021/12/04 07:50:33;;;;;;;13.90;9.13;;;4.30;99.90;;;;;;4899001;29;20091;-69
2021/12/04 07:52:58;;;;;;;13.10;8.98;;;4.30;99.90;;;;;;4884102;29;20119;-67
2021/12/04 07:55:26;;;;;;;13.52;9.75;;;4.30;99.90;;;;;;4884274;29;20185;-69
2021/12/04 07:57:52;;;;;;;14.00;9.77;;;4.30;99.90;;;;;;4884072;29;20222;-67
2021/12/04 08:00:20;;;;;;;15.45;10.30;;;4.40;99.90;;;;;;4882900;29;20626;-67
2021/12/04 08:02:47;;;;;;;14.82;10.07;;;4.40;99.90;;;;;;4883711;29;20053;-68
2021/12/04 08:05:13;;;;;;;13.63;9.88;;;4.30;99.90;;;;;;4900063;29;20063;-68
2021/12/04 08:07:39;;;;;;;17.10;10.48;;;4.40;99.90;;;;;;4883428;29;20052;-67
2021/12/04 08:10:08;;;;;;;16.23;10.23;;;4.40;99.90;;;;;;4883852;29;20156;-68
2021/12/04 08:12:33;;;;;;;16.35;10.32;;;4.40;99.90;;;;;;4898063;29;20060;-68
2021/12/04 08:14:59;;;;;;;20.42;11.27;;;4.40;99.90;;;;;;4899386;29;20061;-67
2021/12/04 08:17:25;;;;;;;15.07;10.80;;;4.40;99.90;;;;;;4901086;29;20532;-66
2021/12/04 08:19:51;;;;;;;18.42;11.60;;;4.40;99.90;;;;;;4882098;29;20052;-66
2021/12/04 08:22:17;;;;;;;18.63;10.98;;;4.40;99.90;;;;;;4880332;29;20154;-67
2021/12/04 08:24:44;;;;;;;19.83;12.52;;;4.40;99.90;;;;;;4880254;29;20057;-67
2021/12/04 08:27:10;;;;;;;19.73;12.05;;;4.40;99.90;;;;;;4880661;29;20451;-66
2021/12/04 08:29:36;;;;;;;21.50;12.60;;;4.40;99.90;;;;;;4880198;29;20101;-65
2021/12/04 08:32:02;;;;;;;21.13;13.13;;;4.50;99.90;;;;;;4893706;29;20049;-68
2021/12/04 08:34:28;;;;;;;21.13;12.57;;;4.40;99.90;;;;;;4882862;29;20112;-68
2021/12/04 08:36:53;;;;;;;26.25;13.23;;;4.50;99.90;;;;;;4898802;29;20149;-67
2021/12/04 08:39:20;;;;;;;19.27;11.88;;;4.50;99.90;;;;;;4882873;29;20053;-66
2021/12/04 08:41:47;;;;;;;20.80;12.20;;;4.50;99.90;;;;;;4882775;29;20053;-68
2021/12/04 08:44:13;;;;;;;18.63;11.52;;;4.50;99.90;;;;;;4883050;29;20071;-66
2021/12/04 08:46:39;;;;;;;21.20;12.02;;;4.50;99.90;;;;;;4899765;29;20481;-67
2021/12/04 08:49:06;;;;;;;18.75;11.63;;;4.60;99.90;;;;;;4898565;29;20147;-66
2021/12/04 08:51:33;;;;;;;18.92;10.82;;;4.50;99.90;;;;;;4882401;29;20528;-67
2021/12/04 08:53:59;;;;;;;20.48;11.77;;;4.60;99.90;;;;;;4898569;29;20127;-66
2021/12/04 08:56:25;;;;;;;16.42;10.65;;;4.60;99.90;;;;;;4882751;29;20127;-67
2021/12/04 08:58:51;;;;;;;18.80;11.38;;;4.60;99.90;;;;;;4882482;29;20132;-66
2021/12/04 09:01:25;;;;;;;19.20;11.02;;;4.60;99.90;;;;;;4882039;29;20056;-66
2021/12/04 09:03:54;;;;;;;22.42;12.32;;;4.70;99.90;;;;;;4882997;29;20053;-66
2021/12/04 09:06:20;;;;;;;17.25;10.45;;;4.80;99.90;;;;;;4897281;29;20060;-68
2021/12/04 09:08:45;;;;;;;17.88;11.30;;;4.70;99.90;;;;;;4882314;29;20063;-67
2021/12/04 09:11:14;;;;;;;15.85;9.85;;;4.70;99.90;;;;;;4898014;29;20148;-65
2021/12/04 09:13:41;;;;;;;17.10;11.18;;;4.70;99.90;;;;;;4882419;29;20461;-66
2021/12/04 09:16:09;;;;;;;19.02;11.65;;;4.80;99.90;;;;;;4898195;29;20100;-66
2021/12/04 09:18:35;;;;;;;17.80;10.25;;;4.80;99.90;;;;;;4882217;29;20060;-68
2021/12/04 09:21:01;;;;;;;17.85;11.05;;;4.80;99.90;;;;;;4898498;29;20067;-67
2021/12/04 09:23:33;;;;;;;21.33;11.25;;;4.80;99.90;;;;;;4896686;29;20489;-66
2021/12/04 09:26:02;;;;;;;21.67;11.40;;;4.80;99.90;;;;;;4881817;29;20517;-68
2021/12/04 09:31:31;;;;;;;20.23;10.73;;;4.80;99.90;;;;;;4897502;29;20095;-66
2021/12/04 09:34:30;;;;;;;21.95;12.38;;;4.80;99.90;;;;;;4897301;29;20182;-69
2021/12/04 10:13:36;;;;;;;22.52;10.70;;;5.40;99.90;;;;;;4897046;29;20088;-67
2021/12/04 10:34:35;;;;;;;21.48;10.75;;;5.20;99.90;;;;;;4879547;29;20072;-69
2021/12/04 10:37:09;;;;;;;24.27;11.50;;;5.20;99.90;;;;;;4896578;29;20128;-68
2021/12/04 10:39:35;;;;;;;19.80;10.35;;;5.20;99.90;;;;;;4881444;29;20405;-68
2021/12/04 10:42:04;;;;;;;27.35;11.90;;;5.20;99.90;;;;;;4881413;29;20060;-68
2021/12/04 10:44:31;;;;;;;27.73;12.55;;;5.20;99.90;;;;;;4880591;29;20061;-68
2021/12/04 10:47:11;;;;;;;20.63;11.18;;;5.20;99.90;;;;;;4881476;29;20092;-67
2021/12/04 10:50:05;;;;;;;22.23;11.25;;;5.20;99.90;;;;;;4879832;29;20049;-68
2021/12/04 10:55:18;;;;;;;21.38;11.70;;;5.20;99.90;;;;;;4896218;29;20128;-70
2021/12/04 11:02:49;;;;;;;25.80;13.63;;;5.30;99.90;;;;;;4880411;29;20402;-68
2021/12/04 11:05:48;;;;;;;24.00;12.73;;;5.30;99.90;;;;;;4895384;29;20402;-67
2021/12/04 11:22:35;;;;;;;24.08;12.98;;;5.30;99.90;;;;;;4880884;29;20049;-68
2021/12/04 11:28:18;;;;;;;28.58;13.98;;;5.30;99.90;;;;;;4895866;29;20048;-68
2021/12/04 11:44:04;;;;;;;30.75;16.30;;;5.30;99.90;;;;;;4880722;29;20167;-67
2021/12/04 11:46:43;;;;;;;31.83;15.63;;;5.30;99.90;;;;;;4880461;29;20061;-67
2021/12/04 11:49:16;;;;;;;33.15;16.77;;;5.30;99.90;;;;;;4900613;29;20212;-67
2021/12/04 11:51:57;;;;;;;36.08;17.20;;;5.30;99.90;;;;;;4882942;29;20071;-67
2021/12/04 11:54:42;;;;;;;35.05;17.58;;;5.30;99.90;;;;;;4900501;29;20063;-68
2021/12/04 11:57:11;;;;;;;38.47;18.55;;;5.30;99.90;;;;;;4884206;29;20473;-66
2021/12/04 11:59:40;;;;;;;36.15;17.92;;;5.30;99.90;;;;;;4882604;29;20071;-67
2021/12/04 12:02:09;;;;;;;39.85;19.33;;;5.30;99.90;;;;;;4883692;29;20115;-67
2021/12/04 12:04:44;;;;;;;43.03;18.85;;;5.70;99.90;;;;;;4898675;29;20060;-68
2021/12/04 12:07:16;;;;;;;42.42;19.95;;;5.30;99.90;;;;;;4884256;29;20068;-66
2021/12/04 12:09:43;;;;;;;45.90;20.55;;;5.30;99.90;;;;;;4883524;29;20131;-66
2021/12/04 12:12:13;;;;;;;46.75;20.20;;;5.30;99.90;;;;;;4883463;29;20056;-67
2021/12/04 12:14:51;;;;;;;52.15;22.08;;;5.30;99.90;;;;;;4883355;29;20061;-68
2021/12/04 12:17:33;;;;;;;52.10;22.45;;;5.30;99.90;;;;;;4883407;29;20048;-67
2021/12/04 12:19:59;;;;;;;42.40;19.10;;;5.40;99.90;;;;;;4883523;29;20052;-67
2021/12/04 12:22:39;;;;;;;53.13;23.92;;;5.40;99.90;;;;;;4884184;29;20108;-67
2021/12/04 12:25:25;;;;;;;51.90;23.60;;;5.40;99.90;;;;;;4883390;29;20532;-68
2021/12/04 12:31:42;;;;;;;52.28;24.35;;;5.40;99.90;;;;;;4883010;29;20053;-67
2021/12/04 12:36:20;;;;;;;53.50;24.60;;;5.30;99.90;;;;;;4882815;29;20188;-67
2021/12/04 12:39:13;;;;;;;51.70;22.98;;;5.40;99.90;;;;;;4883495;29;20048;-67
2021/12/04 12:41:40;;;;;;;49.20;20.95;;;5.30;99.90;;;;;;4874585;29;20447;-66
2021/12/04 12:44:13;;;;;;;51.50;22.70;;;5.30;99.90;;;;;;4867249;29;20055;-67
2021/12/04 12:46:41;;;;;;;49.78;21.10;;;5.30;99.90;;;;;;4867206;29;20059;-69
2021/12/04 12:49:28;;;;;;;42.88;20.70;;;5.30;99.90;;;;;;4867240;29;20067;-67
2021/12/04 12:52:02;;;;;;;48.30;21.00;;;5.40;99.90;;;;;;4898407;29;20425;-66
2021/12/04 12:54:38;;;;;;;41.45;19.25;;;5.40;99.90;;;;;;4899623;29;20077;-65
2021/12/04 12:57:31;;;;;;;40.58;18.75;;;5.40;99.90;;;;;;4898686;29;20059;-67
2021/12/04 13:11:39;;;;;;;39.97;18.58;;;5.50;99.90;;;;;;4881948;29;20410;-67
2021/12/04 13:14:12;;;;;;;46.63;20.80;;;5.50;99.90;;;;;;4881804;29;20060;-65
2021/12/04 13:16:42;;;;;;;50.92;23.58;;;5.50;99.90;;;;;;4881979;29;20064;-66
2021/12/04 13:19:11;;;;;;;52.55;21.83;;;5.40;99.90;;;;;;4882454;29;20053;-66
2021/12/04 13:21:39;;;;;;;55.45;25.67;;;5.40;99.90;;;;;;4881999;29;20048;-65
2021/12/04 13:24:07;;;;;;;49.20;22.90;;;5.50;99.90;;;;;;4882915;29;20438;-67
2021/12/04 13:26:38;;;;;;;58.28;25.67;;;5.40;99.90;;;;;;4898869;29;20164;-66
2021/12/04 13:29:06;;;;;;;61.17;27.80;;;5.40;99.90;;;;;;4867391;29;20468;-67
2021/12/04 13:31:37;;;;;;;51.20;24.98;;;5.30;99.90;;;;;;4883303;29;20052;-68
2021/12/04 13:34:02;;;;;;;53.63;24.42;;;5.30;99.90;;;;;;4882669;29;20498;-66
2021/12/04 13:36:30;;;;;;;50.30;22.50;;;5.30;99.90;;;;;;4896695;29;20140;-66
2021/12/04 13:39:06;;;;;;;52.75;24.70;;;5.30;99.90;;;;;;4882102;29;20064;-67
2021/12/04 13:41:33;;;;;;;58.65;27.52;;;5.30;99.90;;;;;;4881975;29;20052;-66
2021/12/04 13:44:01;;;;;;;56.92;25.45;;;5.30;99.90;;;;;;4897818;29;20183;-67
2021/12/04 13:46:27;;;;;;;55.42;26.75;;;5.30;99.90;;;;;;4881509;29;20095;-67
2021/12/04 13:49:00;;;;;;;53.25;25.65;;;5.30;99.90;;;;;;4881847;29;20139;-66
2021/12/04 13:51:26;;;;;;;58.58;26.33;;;5.20;99.90;;;;;;4897232;29;20092;-67
2021/12/04 13:53:52;;;;;;;57.20;26.67;;;5.30;99.90;;;;;;4881064;29;20474;-68
2021/12/04 13:56:22;;;;;;;60.15;27.23;;;5.30;99.90;;;;;;4898226;29;20063;-67
2021/12/04 13:58:54;;;;;;;56.63;26.20;;;5.30;99.90;;;;;;4882068;29;20498;-66
2021/12/04 14:01:21;;;;;;;52.75;24.88;;;5.30;99.90;;;;;;4896643;29;20048;-65
2021/12/04 14:03:47;;;;;;;58.50;25.85;;;5.30;99.90;;;;;;4897845;29;20532;-67
2021/12/04 14:06:18;;;;;;;60.00;26.90;;;5.30;99.90;;;;;;4897828;29;20108;-66
2021/12/04 14:08:59;;;;;;;54.85;25.77;;;5.30;99.90;;;;;;4880880;29;20049;-65
2021/12/04 14:11:38;;;;;;;52.75;25.25;;;5.30;99.90;;;;;;4892792;29;20066;-66
2021/12/04 14:14:24;;;;;;;50.00;25.20;;;5.30;99.90;;;;;;4897967;29;20067;-67
2021/12/04 14:16:52;;;;;;;54.22;24.85;;;5.30;99.90;;;;;;4881360;29;20067;-67
2021/12/04 14:19:24;;;;;;;54.05;25.33;;;5.30;99.90;;;;;;4881293;29;20096;-67
2021/12/04 14:22:20;;;;;;;52.35;24.27;;;5.30;99.90;;;;;;4881324;29;20112;-66
2021/12/04 14:24:49;;;;;;;52.67;24.90;;;5.20;99.90;;;;;;4885995;29;20131;-66
2021/12/04 14:27:20;;;;;;;48.95;24.48;;;5.20;99.90;;;;;;4897395;29;20076;-67
2021/12/04 14:29:49;;;;;;;54.38;25.58;;;5.20;99.90;;;;;;4881296;29;20060;-66
2021/12/04 14:32:20;;;;;;;56.13;25.58;;;5.20;99.90;;;;;;4897685;29;20060;-66
2021/12/04 14:34:45;;;;;;;53.53;24.08;;;5.20;99.90;;;;;;4880947;29;20401;-65
2021/12/04 14:37:16;;;;;;;54.95;24.13;;;5.20;99.90;;;;;;4896992;29;20060;-66
2021/12/04 14:39:45;;;;;;;52.92;24.58;;;5.20;99.90;;;;;;4881405;29;20060;-67
2021/12/04 14:42:32;;;;;;;50.47;23.95;;;5.20;99.90;;;;;;4881362;29;20159;-67
2021/12/04 14:45:03;;;;;;;50.28;24.75;;;5.20;99.90;;;;;;4880777;29;20471;-66
2021/12/04 14:47:37;;;;;;;49.53;22.73;;;5.20;99.90;;;;;;4897457;29;20508;-68
2021/12/04 14:50:05;;;;;;;48.47;22.88;;;5.20;99.90;;;;;;4876816;29;20141;-66
2021/12/04 14:52:32;;;;;;;56.63;24.30;;;5.20;99.90;;;;;;4880592;29;20126;-67
2021/12/04 14:55:10;;;;;;;47.95;23.30;;;5.20;99.90;;;;;;4880797;29;20052;-65
2021/12/04 14:57:36;;;;;;;49.78;23.20;;;5.20;99.90;;;;;;4880458;29;20109;-66
2021/12/04 15:00:09;;;;;;;52.63;24.00;;;5.20;99.90;;;;;;4880856;29;20048;-67
2021/12/04 15:02:35;;;;;;;55.00;24.98;;;5.20;99.90;;;;;;4880792;29;20049;-66
2021/12/04 15:05:03;;;;;;;47.85;23.85;;;5.20;99.90;;;;;;4880631;29;20068;-66
2021/12/04 15:07:32;;;;;;;55.70;24.70;;;5.20;99.90;;;;;;4880686;29;20059;-66
2021/12/04 15:09:59;;;;;;;50.40;24.48;;;5.20;99.90;;;;;;4897088;29;20064;-67
2021/12/04 15:12:33;;;;;;;46.28;22.42;;;5.20;99.90;;;;;;4880462;29;20063;-67
2021/12/04 15:15:03;;;;;;;47.92;23.20;;;5.20;99.90;;;;;;4879284;29;20053;-66
2021/12/04 15:17:30;;;;;;;48.20;23.10;;;5.20;99.90;;;;;;4880620;29;20057;-66
2021/12/04 15:20:16;;;;;;;51.00;23.52;;;5.20;99.90;;;;;;4880119;29;20057;-67
2021/12/04 15:22:44;;;;;;;56.35;26.05;;;5.20;99.90;;;;;;4884523;29;20401;-67
2021/12/04 15:25:24;;;;;;;52.30;23.88;;;5.10;99.90;;;;;;4884743;29;20185;-66
2021/12/04 15:27:50;;;;;;;54.60;25.23;;;5.20;99.90;;;;;;4880348;29;20063;-66
2021/12/04 15:30:18;;;;;;;57.88;25.58;;;5.20;99.90;;;;;;4899036;29;20549;-65
2021/12/04 15:32:44;;;;;;;59.22;26.15;;;5.20;99.90;;;;;;4884231;29;20060;-65
2021/12/04 15:35:32;;;;;;;48.95;23.33;;;5.20;99.90;;;;;;4884169;29;20528;-67
2021/12/04 15:38:04;;;;;;;59.58;24.95;;;5.20;99.90;;;;;;4883809;29;20045;-67
2021/12/04 15:40:47;;;;;;;42.58;22.77;;;5.10;99.90;;;;;;4900904;29;20087;-66
2021/12/04 15:43:22;;;;;;;51.92;24.67;;;5.20;99.90;;;;;;4883437;29;20406;-66